createdAt,value
2022-12-03T00:00:22.679Z,3.97
2022-12-03T00:02:53.163Z,4.03
2022-12-03T00:05:22.254Z,4.70
2022-12-03T00:07:51.259Z,4.40
2022-12-03T00:10:20.692Z,3.13
2022-12-03T00:12:49.717Z,3.20
2022-12-03T00:15:18.870Z,3.45
2022-12-03T00:17:47.853Z,3.70
2022-12-03T00:20:24.972Z,4.85
2022-12-03T00:22:54.034Z,4.72
2022-12-03T00:25:22.998Z,5.63
2022-12-03T00:27:51.965Z,6.10
2022-12-03T00:30:21.020Z,5.97
2022-12-03T00:32:50.873Z,6.20
2022-12-03T00:35:21.232Z,5.75
2022-12-03T00:37:50.167Z,5.72
2022-12-03T00:40:19.274Z,6.30
2022-12-03T00:42:48.281Z,5.53
2022-12-03T00:45:17.367Z,5.95
2022-12-03T00:47:46.319Z,5.40
2022-12-03T00:50:15.293Z,5.20
2022-12-03T00:52:45.669Z,5.53
2022-12-03T00:55:14.637Z,5.30
2022-12-03T00:57:43.680Z,4.50
2022-12-03T01:00:14.275Z,4.45
2022-12-03T01:02:43.301Z,3.60
2022-12-03T01:05:12.783Z,3.85
2022-12-03T01:07:41.791Z,3.50
2022-12-03T01:10:13.316Z,3.22
2022-12-03T01:12:42.270Z,3.55
2022-12-03T01:15:12.442Z,3.90
2022-12-03T01:17:41.498Z,4.35
2022-12-03T01:20:11.866Z,4.05
2022-12-03T01:22:40.836Z,4.23
2022-12-03T01:25:11.935Z,4.45
2022-12-03T01:30:10.516Z,4.15
2022-12-03T01:32:38.486Z,4.47
2022-12-03T01:35:08.349Z,5.00
2022-12-03T01:37:40.213Z,4.53
2022-12-03T01:40:13.217Z,5.00
2022-12-03T01:42:43.460Z,4.43
2022-12-03T01:45:21.219Z,4.68
2022-12-03T01:47:50.397Z,4.32
2022-12-03T01:50:22.357Z,5.07
2022-12-03T01:52:51.368Z,5.13
2022-12-03T01:55:24.481Z,4.97
2022-12-03T01:57:57.047Z,4.82
2022-12-03T02:00:27.840Z,5.25
2022-12-03T02:02:58.806Z,5.40
2022-12-03T02:05:30.481Z,4.80
2022-12-03T02:08:00.236Z,4.90
2022-12-03T02:10:35.474Z,4.75
2022-12-03T02:13:06.704Z,5.40
2022-12-03T02:15:36.340Z,5.30
2022-12-03T02:18:05.507Z,5.35
2022-12-03T02:20:39.091Z,5.00
2022-12-03T02:23:13.182Z,4.88
2022-12-03T02:25:43.571Z,5.60
2022-12-03T02:28:12.622Z,5.40
2022-12-03T02:30:41.669Z,5.55
2022-12-03T02:33:10.651Z,5.47
2022-12-03T02:35:40.796Z,5.50
2022-12-03T02:38:15.775Z,5.57
2022-12-03T02:40:48.328Z,5.57
2022-12-03T02:43:17.759Z,5.80
2022-12-03T02:45:49.780Z,6.15
2022-12-03T02:48:23.487Z,5.68
2022-12-03T02:50:55.556Z,6.13
2022-12-03T02:53:30.877Z,6.20
2022-12-03T02:56:02.924Z,6.20
2022-12-03T02:58:33.880Z,6.18
2022-12-03T03:01:04.877Z,5.78
2022-12-03T03:03:34.569Z,5.30
2022-12-03T03:06:07.519Z,5.05
2022-12-03T03:08:38.176Z,5.80
2022-12-03T03:11:08.667Z,5.65
2022-12-03T03:13:38.788Z,5.35
2022-12-03T03:16:09.333Z,6.20
2022-12-03T03:18:38.744Z,5.63
2022-12-03T03:21:08.409Z,7.47
2022-12-03T03:23:37.447Z,5.95
2022-12-03T03:26:09.819Z,6.03
2022-12-03T03:28:41.866Z,5.50
2022-12-03T03:31:13.953Z,5.28
2022-12-03T03:33:46.809Z,5.00
2022-12-03T03:36:16.655Z,5.82
2022-12-03T03:38:45.707Z,5.60
2022-12-03T03:41:17.203Z,5.57
2022-12-03T03:43:47.096Z,4.88
2022-12-03T03:46:18.117Z,5.18
2022-12-03T03:48:48.432Z,4.85
2022-12-03T03:51:18.410Z,5.00
2022-12-03T03:53:49.684Z,4.90
2022-12-03T03:58:50.159Z,5.90
2022-12-03T04:01:19.896Z,5.68
2022-12-03T04:03:48.989Z,5.25
2022-12-03T04:06:18.014Z,5.57
2022-12-03T04:08:46.994Z,6.10
2022-12-03T04:11:33.445Z,6.28
2022-12-03T04:14:03.774Z,6.20
2022-12-03T04:16:32.867Z,6.40
2022-12-03T04:19:01.924Z,6.10
2022-12-03T04:21:50.731Z,5.82
2022-12-03T04:24:19.697Z,5.35
2022-12-03T04:27:06.092Z,4.95
2022-12-03T04:29:36.466Z,4.93
2022-12-03T04:32:23.052Z,6.07
2022-12-03T04:35:09.636Z,4.90
2022-12-03T04:37:38.616Z,4.65
2022-12-03T04:40:29.463Z,2.70
2022-12-03T04:42:58.482Z,2.75
2022-12-03T04:45:28.808Z,3.05
2022-12-03T04:47:57.758Z,2.80
2022-12-03T04:50:26.732Z,3.08
2022-12-03T04:52:55.690Z,3.13
2022-12-03T04:55:24.610Z,3.70
2022-12-03T04:57:54.021Z,3.42
2022-12-03T05:00:23.242Z,3.42
2022-12-03T05:02:53.645Z,3.42
2022-12-03T05:05:22.706Z,3.70
2022-12-03T05:07:51.684Z,3.67
2022-12-03T05:10:20.910Z,4.13
2022-12-03T05:12:49.985Z,4.38
2022-12-03T05:15:19.081Z,4.53
2022-12-03T05:17:48.056Z,3.95
2022-12-03T05:20:35.764Z,3.83
2022-12-03T05:23:04.708Z,3.08
2022-12-03T05:25:33.688Z,3.05
2022-12-03T05:28:02.704Z,2.70
2022-12-03T05:30:31.701Z,2.53
2022-12-03T05:33:00.707Z,2.88
2022-12-03T05:35:31.072Z,2.80
2022-12-03T05:38:00.017Z,3.33
2022-12-03T05:40:29.088Z,2.60
2022-12-03T05:42:57.257Z,3.13
2022-12-03T05:45:28.264Z,3.15
2022-12-03T05:47:58.748Z,3.38
2022-12-03T05:50:31.624Z,3.75
2022-12-03T05:53:01.344Z,3.92
2022-12-03T05:55:30.516Z,4.30
2022-12-03T05:57:59.510Z,4.22
2022-12-03T06:00:30.554Z,3.80
2022-12-03T06:03:00.212Z,4.28
2022-12-03T06:05:30.597Z,4.45
2022-12-03T06:07:59.724Z,4.22
2022-12-03T06:10:30.864Z,4.45
2022-12-03T06:12:59.826Z,4.30
2022-12-03T06:15:28.846Z,4.47
2022-12-03T06:17:57.803Z,4.60
2022-12-03T06:20:26.857Z,3.72
2022-12-03T06:22:57.244Z,4.03
2022-12-03T06:25:26.213Z,4.63
2022-12-03T06:27:55.169Z,4.20
2022-12-03T06:30:24.106Z,4.93
2022-12-03T06:32:53.099Z,4.20
2022-12-03T06:35:22.047Z,4.22
2022-12-03T06:37:51.185Z,4.63
2022-12-03T06:40:21.584Z,4.13
2022-12-03T06:42:50.541Z,3.80
2022-12-03T06:45:19.607Z,3.60
2022-12-03T06:47:48.671Z,3.10
2022-12-03T06:50:17.855Z,3.50
2022-12-03T06:52:46.822Z,3.35
2022-12-03T06:55:15.896Z,3.00
2022-12-03T06:57:46.204Z,3.05
2022-12-03T07:00:15.895Z,3.03
2022-12-03T07:02:45.132Z,2.92
2022-12-03T07:05:15.780Z,2.95
2022-12-03T07:07:44.789Z,3.47
2022-12-03T07:10:14.856Z,4.05
2022-12-03T07:12:45.274Z,3.00
2022-12-03T07:15:14.501Z,2.57
2022-12-03T07:17:43.645Z,2.60
2022-12-03T07:20:13.373Z,2.60
2022-12-03T07:22:42.407Z,2.50
2022-12-03T07:25:12.555Z,2.70
2022-12-03T07:27:42.770Z,2.22
2022-12-03T07:30:16.696Z,2.72
2022-12-03T07:32:45.654Z,2.28
2022-12-03T07:35:14.623Z,2.50
2022-12-03T07:37:43.645Z,2.72
2022-12-03T07:40:13.603Z,2.47
2022-12-03T07:42:42.619Z,2.70
2022-12-03T07:45:13.461Z,2.60
2022-12-03T07:47:42.426Z,2.00
2022-12-03T07:50:13.287Z,1.88
2022-12-03T07:52:42.833Z,3.50
2022-12-03T07:55:13.435Z,1.83
2022-12-03T07:57:42.399Z,2.10
2022-12-03T08:00:14.776Z,1.83
2022-12-03T08:02:43.831Z,1.77
2022-12-03T08:05:12.858Z,2.00
2022-12-03T08:07:41.838Z,1.92
2022-12-03T08:10:11.543Z,1.95
2022-12-03T08:12:43.696Z,2.00
2022-12-03T08:15:16.877Z,1.90
2022-12-03T08:17:48.049Z,1.58
2022-12-03T08:20:19.741Z,1.52
2022-12-03T08:22:51.382Z,1.75
2022-12-03T08:25:23.977Z,1.60
2022-12-03T08:27:55.373Z,2.50
2022-12-03T08:30:25.741Z,1.80
2022-12-03T08:32:55.243Z,1.70
2022-12-03T08:35:25.985Z,1.50
2022-12-03T08:38:02.655Z,1.83
2022-12-03T08:40:36.662Z,1.50
2022-12-03T08:43:15.819Z,1.50
2022-12-03T08:45:46.727Z,1.50
2022-12-03T08:48:34.036Z,1.80
2022-12-03T08:51:07.587Z,1.67
2022-12-03T08:53:38.596Z,1.83
2022-12-03T08:56:20.749Z,1.70
2022-12-03T08:58:53.043Z,1.70
2022-12-03T09:01:34.770Z,1.90
2022-12-03T09:04:22.596Z,1.55
2022-12-03T09:06:52.494Z,1.77
2022-12-03T09:09:22.763Z,1.65
2022-12-03T09:11:55.054Z,2.03
2022-12-03T09:14:24.471Z,1.65
2022-12-03T09:16:56.415Z,2.45
2022-12-03T09:19:26.948Z,2.15
2022-12-03T09:21:56.341Z,1.90
2022-12-03T09:24:25.514Z,2.40
2022-12-03T09:26:54.509Z,2.08
2022-12-03T09:29:23.597Z,2.50
2022-12-03T09:31:53.977Z,2.13
2022-12-03T09:34:23.012Z,2.33
2022-12-03T09:36:51.965Z,1.88
2022-12-03T09:39:20.929Z,2.97
2022-12-03T09:41:50.703Z,3.00
2022-12-03T09:44:20.288Z,2.55
2022-12-03T09:46:49.664Z,2.50
2022-12-03T09:49:21.106Z,2.40
2022-12-03T09:51:50.108Z,2.45
2022-12-03T09:54:26.815Z,2.60
2022-12-03T09:56:58.325Z,2.55
2022-12-03T09:59:31.481Z,3.15
2022-12-03T10:02:01.371Z,3.05
2022-12-03T10:04:31.923Z,3.08
2022-12-03T10:07:01.664Z,2.80
2022-12-03T10:09:31.487Z,2.40
2022-12-03T10:12:01.191Z,2.47
2022-12-03T10:14:31.109Z,2.70
2022-12-03T10:17:00.197Z,2.67
2022-12-03T10:19:32.742Z,2.88
2022-12-03T10:22:01.686Z,3.00
2022-12-03T10:24:32.799Z,3.10
2022-12-03T10:27:04.227Z,2.50
2022-12-03T10:29:35.195Z,2.78
2022-12-03T10:32:08.576Z,2.60
2022-12-03T10:34:40.954Z,3.03
2022-12-03T10:37:18.409Z,2.83
2022-12-03T10:39:59.650Z,2.60
2022-12-03T10:42:30.370Z,2.25
2022-12-03T10:45:14.758Z,2.60
2022-12-03T10:47:44.537Z,2.47
2022-12-03T10:50:20.775Z,2.35
2022-12-03T10:52:49.718Z,2.08
2022-12-03T10:55:18.921Z,1.75
2022-12-03T10:57:48.280Z,1.90
2022-12-03T11:00:18.887Z,1.45
2022-12-03T11:02:54.936Z,1.55
2022-12-03T11:05:28.526Z,1.45
2022-12-03T11:07:58.195Z,1.15
2022-12-03T11:10:27.297Z,1.38
2022-12-03T11:13:39.082Z,1.10
2022-12-03T11:19:01.232Z,1.27
2022-12-03T11:21:32.029Z,1.20
2022-12-03T11:24:18.636Z,1.20
2022-12-03T11:27:20.775Z,1.40
2022-12-03T11:30:01.260Z,1.40
2022-12-03T11:33:09.511Z,2.42
2022-12-03T11:36:15.351Z,1.83
2022-12-03T11:38:54.404Z,2.00
2022-12-03T11:41:29.455Z,2.13
2022-12-03T11:44:28.340Z,3.72
2022-12-03T11:47:00.006Z,2.80
2022-12-03T11:49:37.544Z,1.60
2022-12-03T11:52:27.709Z,1.67
2022-12-03T11:55:04.639Z,2.53
2022-12-03T11:57:37.000Z,1.20
2022-12-03T12:00:19.972Z,2.17
2022-12-03T12:02:50.176Z,1.50
2022-12-03T12:05:29.952Z,1.40
2022-12-03T12:07:59.743Z,1.00
2022-12-03T12:10:48.009Z,1.17
2022-12-03T12:13:44.842Z,1.50
2022-12-03T12:16:13.862Z,1.00
2022-12-03T12:18:44.025Z,1.02
2022-12-03T12:21:42.184Z,1.15
2022-12-03T12:24:31.769Z,1.00
2022-12-03T12:27:04.137Z,0.88
2022-12-03T12:29:33.192Z,0.93
2022-12-03T12:32:12.096Z,1.25
2022-12-03T12:34:41.798Z,1.00
2022-12-03T12:37:13.635Z,1.02
2022-12-03T12:39:42.881Z,1.02
2022-12-03T12:42:34.168Z,1.40
2022-12-03T12:45:14.342Z,1.40
2022-12-03T12:47:50.409Z,1.73
2022-12-03T12:50:20.686Z,1.00
2022-12-03T12:52:53.010Z,1.48
2022-12-03T12:55:23.963Z,1.30
2022-12-03T12:57:55.703Z,1.88
2022-12-03T13:00:25.453Z,1.70
2022-12-03T13:02:59.533Z,1.25
2022-12-03T13:05:39.463Z,1.48
2022-12-03T13:08:21.991Z,1.60
2022-12-03T13:10:52.284Z,2.10
2022-12-03T13:13:32.613Z,1.80
2022-12-03T13:16:04.491Z,1.35
2022-12-03T13:18:41.684Z,2.33
2022-12-03T13:21:25.830Z,1.02
2022-12-03T13:23:56.828Z,1.90
2022-12-03T13:26:38.279Z,2.13
2022-12-03T13:29:15.000Z,2.42
2022-12-03T13:31:51.316Z,2.03
2022-12-03T13:34:23.067Z,2.20
2022-12-03T13:36:57.942Z,3.20
2022-12-03T13:39:31.809Z,2.70
2022-12-03T13:42:33.666Z,2.78
2022-12-03T13:45:26.150Z,1.90
2022-12-03T13:47:57.428Z,2.10
2022-12-03T13:50:33.009Z,1.75
2022-12-03T13:53:02.531Z,1.90
2022-12-03T13:55:33.176Z,2.30
2022-12-03T13:58:02.390Z,2.33
2022-12-03T14:00:33.396Z,2.08
2022-12-03T14:03:02.958Z,2.35
2022-12-03T14:05:32.251Z,2.85
2022-12-03T14:08:02.370Z,3.88
2022-12-03T14:10:31.980Z,3.78
2022-12-03T14:13:01.030Z,2.50
2022-12-03T14:15:30.071Z,2.13
2022-12-03T14:18:00.463Z,2.22
2022-12-03T14:20:29.431Z,3.47
2022-12-03T14:22:59.642Z,3.13
2022-12-03T14:25:28.923Z,2.07
2022-12-03T14:27:57.896Z,1.83
2022-12-03T14:30:26.912Z,1.77
2022-12-03T14:32:55.847Z,2.42
2022-12-03T14:35:26.371Z,1.85
2022-12-03T14:37:55.312Z,2.40
2022-12-03T14:40:24.279Z,2.10
2022-12-03T14:42:53.203Z,2.03
2022-12-03T14:45:23.075Z,2.90
2022-12-03T14:47:52.106Z,3.88
2022-12-03T14:50:21.075Z,2.92
2022-12-03T14:52:51.431Z,2.70
2022-12-03T14:55:20.493Z,2.40
2022-12-03T14:57:49.565Z,2.17
2022-12-03T15:00:19.687Z,2.50
2022-12-03T15:02:48.859Z,2.42
2022-12-03T15:05:21.084Z,3.85
2022-12-03T15:07:55.357Z,3.72
2022-12-03T15:10:24.713Z,3.78
2022-12-03T15:12:53.854Z,2.40
2022-12-03T15:15:23.073Z,2.58
2022-12-03T15:17:52.095Z,3.00
2022-12-03T15:20:21.070Z,2.60
2022-12-03T15:22:50.022Z,2.60
2022-12-03T15:25:24.561Z,3.38
2022-12-03T15:27:53.731Z,3.13
2022-12-03T15:30:22.836Z,2.65
2022-12-03T15:32:52.004Z,2.65
2022-12-03T15:35:21.042Z,2.00
2022-12-03T15:37:50.026Z,2.58
2022-12-03T15:40:20.424Z,2.97
2022-12-03T15:42:49.435Z,2.00
2022-12-03T15:45:18.886Z,2.00
2022-12-03T15:47:47.886Z,3.08
2022-12-03T15:50:18.484Z,3.05
2022-12-03T15:52:47.602Z,5.03
2022-12-03T15:55:17.451Z,2.75
2022-12-03T15:57:49.221Z,3.33
2022-12-03T16:00:19.249Z,3.30
2022-12-03T16:02:52.657Z,6.35
2022-12-03T16:05:22.335Z,5.40
2022-12-03T16:07:51.501Z,2.20
2022-12-03T16:10:21.547Z,2.60
2022-12-03T16:12:51.964Z,2.30
2022-12-03T16:15:26.443Z,1.73
2022-12-03T16:17:56.100Z,2.15
2022-12-03T16:20:25.312Z,2.42
2022-12-03T16:22:54.313Z,3.00
2022-12-03T16:25:23.370Z,2.90
2022-12-03T16:27:53.734Z,2.70
2022-12-03T16:30:22.882Z,2.23
2022-12-03T16:32:51.888Z,4.20
2022-12-03T16:35:20.908Z,3.30
2022-12-03T16:37:49.845Z,4.68
2022-12-03T16:40:18.930Z,5.25
2022-12-03T16:42:47.917Z,5.38
2022-12-03T16:45:33.918Z,2.90
2022-12-03T16:48:03.417Z,2.00
2022-12-03T16:50:32.495Z,2.38
2022-12-03T16:53:01.506Z,5.05
2022-12-03T16:55:30.527Z,6.40
2022-12-03T16:57:59.491Z,6.97
2022-12-03T17:00:30.874Z,3.00
2022-12-03T17:02:59.877Z,3.50
2022-12-03T17:05:28.960Z,2.70
2022-12-03T17:07:57.999Z,2.70
2022-12-03T17:10:27.114Z,2.70
2022-12-03T17:13:11.487Z,3.42
2022-12-03T17:15:49.724Z,4.40
2022-12-03T17:18:18.742Z,3.80
2022-12-03T17:20:47.692Z,4.72
2022-12-03T17:23:17.721Z,3.50
2022-12-03T17:25:46.753Z,3.53
2022-12-03T17:28:15.686Z,2.38
2022-12-03T17:30:46.155Z,2.90
2022-12-03T17:33:15.293Z,5.60
2022-12-03T17:35:45.590Z,4.68
2022-12-03T17:38:14.605Z,3.00
2022-12-03T17:40:43.575Z,3.00
2022-12-03T17:43:12.532Z,2.75
2022-12-03T17:45:41.792Z,3.20
2022-12-03T17:48:12.209Z,3.05
2022-12-03T17:50:41.228Z,3.07
2022-12-03T17:53:10.607Z,5.60
2022-12-03T17:55:44.623Z,5.18
2022-12-03T17:58:14.593Z,2.60
2022-12-03T18:00:43.893Z,4.40
2022-12-03T18:03:14.288Z,2.90
2022-12-03T18:05:43.258Z,3.10
2022-12-03T18:08:12.263Z,2.67
2022-12-03T18:10:41.245Z,2.92
2022-12-03T18:13:10.206Z,3.25
2022-12-03T18:15:39.234Z,2.88
2022-12-03T18:18:08.283Z,3.17
2022-12-03T18:20:38.940Z,4.93
2022-12-03T18:23:08.028Z,2.20
2022-12-03T18:25:37.498Z,3.15
2022-12-03T18:28:06.624Z,3.10
2022-12-03T18:30:35.604Z,3.60
2022-12-03T18:33:04.611Z,2.22
2022-12-03T18:35:33.629Z,2.58
2022-12-03T18:38:04.262Z,5.53
2022-12-03T18:40:33.240Z,2.45
2022-12-03T18:43:02.291Z,2.80
2022-12-03T18:45:31.250Z,2.42
2022-12-03T18:48:00.270Z,4.55
2022-12-03T18:50:29.312Z,3.60
2022-12-03T18:52:58.253Z,2.33
2022-12-03T18:55:32.361Z,2.90
2022-12-03T18:58:01.311Z,3.60
2022-12-03T19:00:30.314Z,3.72
2022-12-03T19:03:03.824Z,2.92
2022-12-03T19:05:34.895Z,3.50
2022-12-03T19:08:04.381Z,3.90
2022-12-03T19:10:34.807Z,3.60
2022-12-03T19:13:03.962Z,3.20
2022-12-03T19:15:32.920Z,2.70
2022-12-03T19:18:01.871Z,2.97
2022-12-03T19:20:30.834Z,2.80
2022-12-03T19:22:59.824Z,2.80
2022-12-03T19:25:28.825Z,3.08
2022-12-03T19:27:59.296Z,3.30
2022-12-03T19:30:28.269Z,3.15
2022-12-03T19:32:57.219Z,3.65
2022-12-03T19:35:26.177Z,3.33
2022-12-03T19:37:55.768Z,3.90
2022-12-03T19:40:24.733Z,3.40
2022-12-03T19:42:53.668Z,2.83
2022-12-03T19:45:24.129Z,3.55
2022-12-03T19:47:53.113Z,3.00
2022-12-03T19:50:23.694Z,3.25
2022-12-03T19:52:52.939Z,3.22
2022-12-03T19:55:22.009Z,4.50
2022-12-03T19:57:51.170Z,4.03
2022-12-03T20:00:20.388Z,3.72
2022-12-03T20:02:51.333Z,3.00
2022-12-03T20:05:20.553Z,3.20
2022-12-03T20:07:49.571Z,3.42
2022-12-03T20:10:18.714Z,4.82
2022-12-03T20:12:47.814Z,3.67
2022-12-03T20:15:16.950Z,3.15
2022-12-03T20:17:45.899Z,4.72
2022-12-03T20:20:16.423Z,3.70
2022-12-03T20:22:45.972Z,4.40
2022-12-03T20:25:15.022Z,3.92
2022-12-03T20:27:43.951Z,3.58
2022-12-03T20:30:13.580Z,3.70
2022-12-03T20:32:45.523Z,3.40
2022-12-03T20:35:16.328Z,2.78
2022-12-03T20:37:45.324Z,5.60
2022-12-03T20:40:15.601Z,3.88
2022-12-03T20:42:48.432Z,4.85
2022-12-03T20:45:17.593Z,2.45
2022-12-03T20:47:46.515Z,2.45
2022-12-03T20:50:17.057Z,2.90
2022-12-03T20:53:09.345Z,2.55
2022-12-03T20:55:35.100Z,2.08
2022-12-03T20:58:04.160Z,2.05
2022-12-03T21:00:33.144Z,2.10
2022-12-03T21:03:09.635Z,2.72
2022-12-03T21:05:57.036Z,3.97
2022-12-03T21:08:40.666Z,3.30
2022-12-03T21:11:14.272Z,3.38
2022-12-03T21:13:45.194Z,3.33
2022-12-03T21:16:16.342Z,2.70
2022-12-03T21:18:45.907Z,2.72
2022-12-03T21:21:18.020Z,2.47
2022-12-03T21:23:47.061Z,2.83
2022-12-03T21:26:18.240Z,3.40
2022-12-03T21:28:49.036Z,3.28
2022-12-03T21:31:20.259Z,3.70
2022-12-03T21:36:19.496Z,3.28
2022-12-03T21:38:49.123Z,3.05
2022-12-03T21:41:18.713Z,2.33
2022-12-03T21:43:47.764Z,2.53
2022-12-03T21:47:10.098Z,3.03
2022-12-03T21:49:06.881Z,3.20
2022-12-03T21:51:37.472Z,3.00
2022-12-03T21:54:06.728Z,3.00
2022-12-03T21:56:35.725Z,2.90
2022-12-03T21:59:05.031Z,3.30
2022-12-03T22:01:34.142Z,3.20
2022-12-03T22:04:03.233Z,2.78
2022-12-03T22:06:32.457Z,3.38
2022-12-03T22:09:02.795Z,3.58
2022-12-03T22:11:31.793Z,3.33
2022-12-03T22:14:00.936Z,2.90
2022-12-03T22:16:29.982Z,2.83
2022-12-03T22:18:59.156Z,3.30
2022-12-03T22:21:28.201Z,3.25
2022-12-03T22:23:57.375Z,2.85
2022-12-03T22:26:28.964Z,2.85
2022-12-03T22:28:57.924Z,3.70
2022-12-03T22:31:27.029Z,2.50
2022-12-03T22:33:56.055Z,2.22
2022-12-03T22:36:25.076Z,1.85
2022-12-03T22:38:54.752Z,2.03
2022-12-03T22:41:23.778Z,1.60
2022-12-03T22:43:54.184Z,2.08
2022-12-03T22:46:23.300Z,2.43
2022-12-03T22:48:52.283Z,2.28
2022-12-03T22:51:22.794Z,2.05
2022-12-03T22:53:55.484Z,1.90
2022-12-03T22:56:24.973Z,2.10
2022-12-03T22:58:55.730Z,1.80
2022-12-03T23:01:26.719Z,2.25
2022-12-03T23:03:55.894Z,2.08
2022-12-03T23:06:25.867Z,2.30
2022-12-03T23:08:55.151Z,2.35
2022-12-03T23:11:24.775Z,1.92
2022-12-03T23:13:55.398Z,2.38
2022-12-03T23:16:27.503Z,2.47
2022-12-03T23:18:56.676Z,2.08
2022-12-03T23:21:30.113Z,2.00
2022-12-03T23:24:00.237Z,2.15
2022-12-03T23:26:29.789Z,3.05
2022-12-03T23:29:00.179Z,3.10
2022-12-03T23:31:31.730Z,2.80
2022-12-03T23:34:01.168Z,2.58
2022-12-03T23:36:31.617Z,2.63
2022-12-03T23:39:00.930Z,2.33
2022-12-03T23:41:30.003Z,2.28
2022-12-03T23:44:00.412Z,2.22
2022-12-03T23:46:29.614Z,2.57
2022-12-03T23:48:59.662Z,2.15
2022-12-03T23:51:28.716Z,2.00
2022-12-03T23:53:58.287Z,2.35
2022-12-03T23:56:29.512Z,1.95
2022-12-03T23:59:00.258Z,1.85
